UPDATE or REFRESH or RELOAD each time you view race results!

The  Belmont 16ft Sailing Club Ltd  Presents

Results by : TopYacht Software

Race 3   [30/12/2011]   updated on :  30/12/2011  9:00:52 PM

Cadet National Championships 2011/12

Cadet Nationals results Start : 13:46
Place Sail No Boat Name From Elapsd YS Cor d T Skipper CREW Score Fin Tim
1 9699 SIROCCO SBSC 46:22 46:22 Charlie Connor Ethan Galbraith 1.0 14:32:22
2 4109 SNAKEBITE RGYC 46:38 46:38 William Townson Claire Townson 2.0 14:32:38
3 9778 IMPULSE SBSC 46:41 46:41 Samantha Bailey Hannah Chadwick 3.0 14:32:41
4 9562 MELTEMI SBSC 47:57 47:57 Oliver Burnell Issie De Clerk 4.0 14:33:57
5 9531 PHOENIX SBSC 48:35 48:35 Sam Tiedemann Chloe Abel 5.0 14:34:35
6 9280 UNFINISHED BUSINESS SYC 48:49 48:49 Alice Endersbee Eliza Davies 6.0 14:34:49
7 9552 EXECUTIONER SBSC 48:50 48:50 Silas Hamilton Rupert Hamilton 7.0 14:34:50
8 9528 ODYSSEY SYC 48:54 48:54 Jarad Cavanagh Shae Rohan 8.0 14:34:54
9 9424 SHIMMER SBSC 48:58 48:58 Sam Abel William Cooper 9.0 14:34:58
10 5637 VAMOOSE SYC 49:40 49:40 Charlie Rae Patrick Rohan 10.0 14:35:40
11 4118 SKEETA RGYC 49:51 49:51 Oliver Friend Jasper Cartwright 11.0 14:35:51
12 9698 WILDCARD RGYC 49:55 49:55 Liam Robinson Gabe Nolan 12.0 14:35:55
13 9284 MAGOO 2 SYC 49:58 49:58 Patrick Chipp Jack Furey 13.0 14:35:58
14 9744 SHADOW LBSC 50:02 50:02 Jalina Thompson-Kamb Starr Thompson 14.0 14:36:02
15 9614 TEMPEST RGYC 50:04 50:04 Olivia Neilson Joel Lay 15.0 14:36:04
16 9824 ENDLESS SUMMER PLYC 50:05 50:05 Amy Perin Marni Lydeamore 16.0 14:36:05
17 5653 MANXMAN RYCV 50:18 50:18 Brodie Roberts Callum Prestedge 17.0 14:36:18
18 9523 BROTHERS IN ARMS RGYC 50:37 50:37 Darcy Baranowski Dominic Randall 18.0 14:36:37
19 9550 JOLT BSC 50:49 50:49 Sarah Lawman Robert Donovan 19.0 14:36:49
20 9629 WHITE MISSILE RGYC 50:55 50:55 Nicola Armstrong Emma Kelly 20.0 14:36:55
21 5758 WILD THING SBSC 51:00 51:00 Thomas Cooper Angus Price 21.0 14:37:00
22 5700 SIDEWINDER RYCV 51:06 51:06 Louis Schofield Max Knell 22.0 14:37:06
23 9612 DIRTY HARRY SYC 51:30 51:30 Angus Rae Zoe Rae 23.0 14:37:30
24 9520 DROP BEARS SBSC 51:33 51:33 William Connor Callum Ingram 24.0 14:37:33
25 9559 RESISTANCE RGYC 51:43 51:43 Riley Mulgrew Oliver Manton 25.0 14:37:43
26 8931 MIDNIGHT MAGIC RGYC 51:53 51:53 Charlie Friend Ben Townson 26.0 14:37:53
27 5663 REDPATH RGYC 52:25 52:25 Georgia Randall Matthew Eid 27.0 14:38:25
28 9529 INSAYNE SYC 52:32 52:32 Jacob Freeman Jonathan Coman 28.0 14:38:32
29 5509 SAMARAN SYC 52:34 52:34 Julian Sasson Molly Furey 29.0 14:38:34
30 9621 STEALTH RYCV 52:37 52:37 Jack Fowler Ryan Croft 30.0 14:38:37
31 9561 WINNING EDGE SBSC 52:41 52:41 Toby Burnell Poppy Newton 31.0 14:38:41
32 9777 X-T-SEA RGYC 52:45 52:45 Billy Goodfellow Joshua Hill 32.0 14:38:45
33 9823 LEAP FROG RGYC 52:47 52:47 Lucy Stephens Alanna Field 33.0 14:38:47
34 5636 TRUMP CARD BMYC 52:48 52:48 Kurt Braden Zac Braden 34.0 14:38:48
35 9822 GOODNESS GRACIOUS SYC 52:57 52:57 Grace Endersbee Courtney Perryman 35.0 14:38:57
36 9611 HOLD ON RYCV 53:00 53:00 Harrison Croft James Black 36.0 14:39:00
37 5494 RUSTLER BSC 53:23 53:23 Stuart Plenderleith Oscar O'Brien 37.0
38 9620 BLITZ~EM BSC 53:26 53:26 Ryan Bogatez Mark Donovan 38.0 14:39:26
39 9628 IT'S PINK! RGYC 53:35 53:35 Emily Goodfellow Lachlan Hill 39.0 14:39:35
40 9616 CHECKMATE RGYC 53:49 53:49 Thomas Alexander Dexter Hare-Zen 40.0 14:39:49
41 5752 IMP RGYC 53:57 53:57 Aimee Altermatt Ryu Mayumi 41.0 14:39:57
42 6969 BRIDGEWICK FARM RYCV 54:00 54:00 Lucy Fowler Wynn Schofield 42.0 14:40:00
43 5757 STRIKER SYC 54:08 54:08 Dylan Rohan Lachlan Coman 43.0 14:40:08
44 9821 SIBERIAN TIGER RGYC 54:30 54:30 Sam Stephens Nathan Field 44.0 14:40:30
45 5616 LOQUACIOUS SYC 54:47 54:47 Brooke Robson Zoe Wiley 45.0 14:40:47
46 9281 HIGH CALIBRE PLYC 54:51 54:51 Lauren Henderson Alissa Kelsey 46.0 14:40:51
47 9527 MUSTANG SALLY RYCV 54:53 54:53 Jacqueline Prestedge Callum Girvin 47.0 14:40:53
48 9426 CRAZY BSC 54:54 54:54 Tristan O'Brien Ella Gray 48.0 14:40:54
49 4690 SAILMAKER RYCV 55:19 55:19 Ben Wilson Ryan Cambell 49.0 14:41:19
50 9524 KING GEORGE RYCV 55:26 55:26 Phillipah Miller Lucy Fowler 50.0 14:41:26
51 5661 REBEL TWO RGYC 56:17 56:17 Will Newman Nick Manton 51.0 14:42:17
52 9747 LIFE TO THE XTREME PLYC 56:18 56:18 Georgina Hughes Elsie Kenny 52.0 14:42:18
53 5501 WASABI BSC 56:30 56:30 Luke Bogatez Matthew Ackery 53.0 14:42:30
54 9626 CLAREBUOYANT RYCV 56:46 56:46 Clare Olding Patrick De Koster 54.0 14:42:46
55 5740 RECOIL BSC 56:54 56:54 James Burley-Jukes Charlotte Rogers 55.0 14:42:54
56 9617 BULLANT RYCV 56:55 56:55 Michael Johnson Eamon Zappia 56.0 14:42:55
57 4881 PIRANHA BSC 56:58 56:58 Charlotte Gray Mackenzie Gray 57.0 14:42:58
58 9526 HYPER HYPER SYC 57:16 57:16 Ashley Cavanagh Georgia Wiley 58.0 14:43:16
59 5489 DELTA BSC 57:35 57:35 Vicki Waldock Hannah Miller 59.0 14:43:35
60 9287 CORINTHIAN BSC 59:42 59:42 Fenella Obrien Toby Burley-Jukes 60.0 14:45:42